createdAt,value
2022-09-14T00:01:48.195Z,26.71
2022-09-14T00:04:21.117Z,26.75
2022-09-14T00:06:50.962Z,26.78
2022-09-14T00:09:25.755Z,26.82
2022-09-14T00:11:54.833Z,26.85
2022-09-14T00:14:23.368Z,26.88
2022-09-14T00:16:53.102Z,26.94
2022-09-14T00:19:27.846Z,26.98
2022-09-14T00:21:59.253Z,27.01
2022-09-14T00:24:31.791Z,27.05
2022-09-14T00:27:00.331Z,27.09
2022-09-14T00:29:28.854Z,27.13
2022-09-14T00:31:58.364Z,27.18
2022-09-14T00:34:27.027Z,27.23
2022-09-14T00:36:55.634Z,27.27
2022-09-14T00:39:25.850Z,27.31
2022-09-14T00:41:55.454Z,27.34
2022-09-14T00:44:26.920Z,27.38
2022-09-14T00:46:58.514Z,27.43
2022-09-14T00:49:36.175Z,27.48
2022-09-14T00:52:16.548Z,27.52
2022-09-14T00:54:58.706Z,27.56
2022-09-14T00:57:31.719Z,27.61
2022-09-14T01:00:00.893Z,27.64
2022-09-14T01:02:30.365Z,27.68
2022-09-14T01:04:59.234Z,27.73
2022-09-14T01:07:33.278Z,27.77
2022-09-14T01:10:29.050Z,27.81
2022-09-14T01:13:15.667Z,27.85
2022-09-14T01:15:56.038Z,27.89
2022-09-14T01:18:41.676Z,27.94
2022-09-14T01:21:14.668Z,27.98
2022-09-14T01:23:48.807Z,28.00
2022-09-14T01:26:35.629Z,28.06
2022-09-14T01:29:24.472Z,28.08
2022-09-14T01:31:59.295Z,28.10
2022-09-14T01:34:54.641Z,28.13
2022-09-14T01:37:43.357Z,28.12
2022-09-14T01:40:43.771Z,28.17
2022-09-14T01:43:16.563Z,28.16
2022-09-14T01:46:21.509Z,28.19
2022-09-14T01:49:08.914Z,28.18
2022-09-14T01:51:49.347Z,28.22
2022-09-14T01:54:36.342Z,28.24
2022-09-14T01:57:17.758Z,28.30
2022-09-14T01:59:48.679Z,28.34
2022-09-14T02:02:19.943Z,28.38
2022-09-14T02:04:54.352Z,28.43
2022-09-14T02:07:22.990Z,28.47
2022-09-14T02:09:52.906Z,28.50
2022-09-14T02:12:21.652Z,28.54
2022-09-14T02:14:53.723Z,28.58
2022-09-14T02:17:23.345Z,28.62
2022-09-14T02:19:57.384Z,28.68
2022-09-14T02:22:28.739Z,28.72
2022-09-14T02:24:57.425Z,28.75
2022-09-14T02:27:26.711Z,28.81
2022-09-14T02:29:55.566Z,28.86
2022-09-14T02:33:01.514Z,28.96
2022-09-14T02:35:35.930Z,29.03
2022-09-14T02:38:30.865Z,29.07
2022-09-14T02:41:13.279Z,29.09
2022-09-14T02:44:11.092Z,29.12
2022-09-14T02:46:47.966Z,29.15
2022-09-14T02:49:47.042Z,29.15
2022-09-14T02:52:31.851Z,29.17
2022-09-14T02:55:08.923Z,29.21
2022-09-14T02:58:07.875Z,29.26
2022-09-14T03:00:49.751Z,29.33
2022-09-14T03:03:21.858Z,29.32
2022-09-14T03:05:50.373Z,29.32
2022-09-14T03:08:18.822Z,29.31
2022-09-14T03:10:47.657Z,29.29
2022-09-14T03:13:16.086Z,29.29
2022-09-14T03:15:44.691Z,29.30
2022-09-14T03:18:14.664Z,29.31
2022-09-14T03:20:43.669Z,29.31
2022-09-14T03:23:13.202Z,29.33
2022-09-14T03:25:44.427Z,29.38
2022-09-14T03:28:14.434Z,29.46
2022-09-14T03:30:43.121Z,29.45
2022-09-14T03:33:11.667Z,29.52
2022-09-14T03:35:40.132Z,29.53
2022-09-14T03:38:09.588Z,29.54
2022-09-14T03:40:38.314Z,29.57
2022-09-14T03:43:06.869Z,29.54
2022-09-14T03:45:35.306Z,29.54
2022-09-14T03:48:04.056Z,29.57
2022-09-14T03:50:33.179Z,29.57
2022-09-14T03:53:01.703Z,29.63
2022-09-14T03:55:30.240Z,29.69
2022-09-14T03:57:58.776Z,29.75
2022-09-14T04:00:27.247Z,29.84
2022-09-14T04:02:55.773Z,29.88
2022-09-14T04:05:24.274Z,29.89
2022-09-14T04:07:52.750Z,29.89
2022-09-14T04:10:21.286Z,29.89
2022-09-14T04:12:49.712Z,29.94
2022-09-14T04:15:18.478Z,29.92
2022-09-14T04:17:47.246Z,29.92
2022-09-14T04:20:15.784Z,29.89
2022-09-14T04:22:44.197Z,29.90
2022-09-14T04:25:13.103Z,29.89
2022-09-14T04:27:41.600Z,29.85
2022-09-14T04:30:10.408Z,29.83
2022-09-14T04:32:38.862Z,29.81
2022-09-14T04:35:07.597Z,29.77
2022-09-14T04:37:36.052Z,29.75
2022-09-14T04:40:04.780Z,29.80
2022-09-14T04:42:33.284Z,29.80
2022-09-14T04:45:01.959Z,29.80
2022-09-14T04:47:31.017Z,29.80
2022-09-14T04:49:59.513Z,29.79
2022-09-14T04:52:27.939Z,29.77
2022-09-14T04:54:56.544Z,29.76
2022-09-14T04:57:25.042Z,29.74
2022-09-14T04:59:53.476Z,29.72
2022-09-14T05:02:22.195Z,29.67
2022-09-14T05:04:50.741Z,29.58
2022-09-14T05:07:19.254Z,29.43
2022-09-14T05:09:47.671Z,29.36
2022-09-14T05:12:16.207Z,29.29
2022-09-14T05:14:44.712Z,29.27
2022-09-14T05:17:13.179Z,29.26
2022-09-14T05:19:41.676Z,29.21
2022-09-14T05:22:10.111Z,29.14
2022-09-14T05:24:38.597Z,29.04
2022-09-14T05:27:07.113Z,28.91
2022-09-14T05:29:35.718Z,28.78
2022-09-14T05:32:04.588Z,28.62
2022-09-14T05:34:33.212Z,28.47
2022-09-14T05:37:01.690Z,28.29
2022-09-14T05:39:30.345Z,28.15
2022-09-14T05:41:58.876Z,28.08
2022-09-14T05:44:27.524Z,27.98
2022-09-14T05:46:56.012Z,27.91
2022-09-14T05:49:26.296Z,27.83
2022-09-14T05:51:54.801Z,27.71
2022-09-14T05:54:23.202Z,27.59
2022-09-14T05:56:51.706Z,27.49
2022-09-14T05:59:20.210Z,27.42
2022-09-14T06:01:49.070Z,27.37
2022-09-14T06:04:17.555Z,27.33
2022-09-14T06:06:56.085Z,27.32
2022-09-14T06:09:34.625Z,27.32
2022-09-14T06:12:03.347Z,27.33
2022-09-14T06:14:35.255Z,27.36
2022-09-14T06:17:04.133Z,27.38
2022-09-14T06:19:32.566Z,27.41
2022-09-14T06:22:02.222Z,27.45
2022-09-14T06:24:30.746Z,27.50
2022-09-14T06:26:59.165Z,27.56
2022-09-14T06:29:38.232Z,27.63
2022-09-14T06:32:07.084Z,27.68
2022-09-14T06:34:35.518Z,27.73
2022-09-14T06:37:04.052Z,27.80
2022-09-14T06:39:32.749Z,27.85
2022-09-14T06:42:01.275Z,27.92
2022-09-14T06:44:29.723Z,27.98
2022-09-14T06:46:58.437Z,28.05
2022-09-14T06:49:26.913Z,28.10
2022-09-14T06:51:57.698Z,28.16
2022-09-14T06:54:26.553Z,28.22
2022-09-14T06:56:55.080Z,28.29
2022-09-14T06:59:23.627Z,28.35
2022-09-14T07:01:52.194Z,28.41
2022-09-14T07:04:20.789Z,28.47
2022-09-14T07:06:51.223Z,28.50
2022-09-14T07:09:20.809Z,28.54
2022-09-14T07:11:50.194Z,28.57
2022-09-14T07:14:18.773Z,28.60
2022-09-14T07:16:47.317Z,28.61
2022-09-14T07:19:16.916Z,28.63
2022-09-14T07:21:45.428Z,28.64
2022-09-14T07:24:16.013Z,28.64
2022-09-14T07:26:44.719Z,28.60
2022-09-14T07:29:18.781Z,28.58
2022-09-14T07:31:55.115Z,28.52
2022-09-14T07:34:24.949Z,28.47
2022-09-14T07:36:53.526Z,28.41
2022-09-14T07:39:22.069Z,28.33
2022-09-14T07:41:50.539Z,28.29
2022-09-14T07:44:19.423Z,28.22
2022-09-14T07:46:48.641Z,28.18
2022-09-14T07:49:18.456Z,28.13
2022-09-14T07:51:47.060Z,28.09
2022-09-14T07:54:17.656Z,28.05
2022-09-14T07:56:46.831Z,28.03
2022-09-14T07:59:35.938Z,28.02
2022-09-14T08:02:08.684Z,28.00
2022-09-14T08:04:37.537Z,28.00
2022-09-14T08:07:06.764Z,28.01
2022-09-14T08:09:35.524Z,28.01
2022-09-14T08:12:05.464Z,28.02
2022-09-14T08:14:34.176Z,28.01
2022-09-14T08:17:02.838Z,28.03
2022-09-14T08:19:31.385Z,28.04
2022-09-14T08:21:59.858Z,28.05
2022-09-14T08:24:28.566Z,28.05
2022-09-14T08:26:57.034Z,28.05
2022-09-14T08:29:25.517Z,28.06
2022-09-14T08:31:54.390Z,28.05
2022-09-14T08:34:23.076Z,28.05
2022-09-14T08:36:52.054Z,28.06
2022-09-14T08:39:20.751Z,28.07
2022-09-14T08:41:49.365Z,28.05
2022-09-14T08:44:32.295Z,28.04
2022-09-14T08:47:14.107Z,28.03
2022-09-14T08:49:56.087Z,28.01
2022-09-14T08:52:48.167Z,28.00
2022-09-14T08:55:19.384Z,27.98
2022-09-14T08:58:06.142Z,27.97
2022-09-14T09:00:49.628Z,27.95
2022-09-14T09:03:41.215Z,27.93
2022-09-14T09:06:16.984Z,27.93
2022-09-14T09:08:45.398Z,27.92
2022-09-14T09:11:21.017Z,27.92
2022-09-14T09:13:53.149Z,27.93
2022-09-14T09:16:25.572Z,27.93
2022-09-14T09:19:08.643Z,27.95
2022-09-14T09:21:43.393Z,27.95
2022-09-14T09:24:27.442Z,27.97
2022-09-14T09:26:55.889Z,27.97
2022-09-14T09:29:24.654Z,27.97
2022-09-14T09:32:00.046Z,27.98
2022-09-14T09:34:31.288Z,27.99
2022-09-14T09:37:01.930Z,27.98
2022-09-14T09:39:34.830Z,27.99
2022-09-14T09:42:14.194Z,28.01
2022-09-14T09:44:59.315Z,28.01
2022-09-14T09:47:43.127Z,28.00
2022-09-14T09:50:26.176Z,28.01
2022-09-14T09:53:06.020Z,28.01
2022-09-14T09:55:40.972Z,28.01
2022-09-14T09:58:24.644Z,28.01
2022-09-14T10:01:20.465Z,28.01
2022-09-14T10:04:06.787Z,28.01
2022-09-14T10:06:47.668Z,28.02
2022-09-14T10:09:22.611Z,28.02
2022-09-14T10:12:05.499Z,28.02
2022-09-14T10:14:37.060Z,28.02
2022-09-14T10:17:25.140Z,28.04
2022-09-14T10:19:55.876Z,28.02
2022-09-14T10:22:39.244Z,28.04
2022-09-14T10:25:16.974Z,28.03
2022-09-14T10:28:01.179Z,28.02
2022-09-14T10:30:50.294Z,28.03
2022-09-14T10:33:19.590Z,28.01
2022-09-14T10:35:51.058Z,28.01
2022-09-14T10:38:35.493Z,27.99
2022-09-14T10:41:16.877Z,27.97
2022-09-14T10:44:20.415Z,27.95
2022-09-14T10:47:02.589Z,27.93
2022-09-14T10:49:34.629Z,27.92
2022-09-14T10:52:25.426Z,27.90
2022-09-14T10:55:00.077Z,27.89
2022-09-14T10:57:40.797Z,27.90
2022-09-14T11:00:21.684Z,27.89
2022-09-14T11:03:28.794Z,27.88
2022-09-14T11:05:57.186Z,27.87
2022-09-14T11:08:30.932Z,27.85
2022-09-14T11:11:11.670Z,27.85
2022-09-14T11:13:47.127Z,27.82
2022-09-14T11:16:33.484Z,27.81
2022-09-14T11:19:22.523Z,27.79
2022-09-14T11:22:28.049Z,27.76
2022-09-14T11:25:13.620Z,27.74
2022-09-14T11:27:58.701Z,27.73
2022-09-14T11:30:40.546Z,27.73
2022-09-14T11:33:19.092Z,27.72
2022-09-14T11:35:53.286Z,27.70
2022-09-14T11:38:27.468Z,27.69
2022-09-14T11:41:20.842Z,27.69
2022-09-14T11:43:59.332Z,27.68
2022-09-14T11:46:41.345Z,27.68
2022-09-14T11:49:28.018Z,27.67
2022-09-14T11:52:30.090Z,27.66
2022-09-14T11:55:00.576Z,27.65
2022-09-14T11:57:32.029Z,27.65
2022-09-14T12:00:03.840Z,27.65
2022-09-14T12:02:37.518Z,27.66
2022-09-14T12:05:09.282Z,27.65
2022-09-14T12:07:43.858Z,27.64
2022-09-14T12:10:21.626Z,27.65
2022-09-14T12:13:00.666Z,27.64
2022-09-14T12:15:29.194Z,27.65
2022-09-14T12:18:10.294Z,27.64
2022-09-14T12:21:00.793Z,27.62
2022-09-14T12:23:41.101Z,27.61
2022-09-14T12:26:12.222Z,27.62
2022-09-14T12:28:49.139Z,27.61
2022-09-14T12:31:45.379Z,27.60
2022-09-14T12:34:32.853Z,27.60
2022-09-14T12:37:33.343Z,27.61
2022-09-14T12:40:33.138Z,27.61
2022-09-14T12:43:36.895Z,27.61
2022-09-14T12:46:09.225Z,27.61
2022-09-14T12:48:50.009Z,27.62
2022-09-14T12:51:32.264Z,27.62
2022-09-14T12:54:04.112Z,27.61
2022-09-14T12:56:41.881Z,27.62
2022-09-14T12:59:13.036Z,27.62
2022-09-14T13:02:11.083Z,27.63
2022-09-14T13:04:43.072Z,27.61
2022-09-14T13:07:20.912Z,27.60
2022-09-14T13:09:55.510Z,27.61
2022-09-14T13:12:47.858Z,27.60
2022-09-14T13:15:28.614Z,27.59
2022-09-14T13:18:02.540Z,27.57
2022-09-14T13:20:33.407Z,27.56
2022-09-14T13:23:02.479Z,27.53
2022-09-14T13:25:39.736Z,27.52
2022-09-14T13:28:16.737Z,27.49
2022-09-14T13:30:54.384Z,27.49
2022-09-14T13:33:23.394Z,27.48
2022-09-14T13:36:11.911Z,27.46
2022-09-14T13:38:40.557Z,27.44
2022-09-14T13:41:20.481Z,27.44
2022-09-14T13:43:49.321Z,27.42
2022-09-14T13:46:20.388Z,27.40
2022-09-14T13:48:49.806Z,27.39
2022-09-14T13:51:26.150Z,27.38
2022-09-14T13:53:59.963Z,27.37
2022-09-14T13:56:34.713Z,27.36
2022-09-14T13:59:12.473Z,27.34
2022-09-14T14:02:01.975Z,27.34
2022-09-14T14:04:34.644Z,27.31
2022-09-14T14:07:14.391Z,27.29
2022-09-14T14:09:47.809Z,27.27
2022-09-14T14:12:28.476Z,27.26
2022-09-14T14:15:00.911Z,27.25
2022-09-14T14:17:37.772Z,27.25
2022-09-14T14:20:41.651Z,27.24
2022-09-14T14:23:10.068Z,27.22
2022-09-14T14:25:56.535Z,27.20
2022-09-14T14:28:29.409Z,27.19
2022-09-14T14:31:03.036Z,27.17
2022-09-14T14:33:33.869Z,27.14
2022-09-14T14:36:09.327Z,27.12
2022-09-14T14:38:38.865Z,27.08
2022-09-14T14:41:07.710Z,27.06
2022-09-14T14:43:36.341Z,27.04
2022-09-14T14:46:07.259Z,27.01
2022-09-14T14:48:35.917Z,26.99
2022-09-14T14:51:04.614Z,26.98
2022-09-14T14:53:33.210Z,26.97
2022-09-14T14:56:01.755Z,26.94
2022-09-14T14:58:35.368Z,26.91
2022-09-14T15:01:05.206Z,26.88
2022-09-14T15:03:33.725Z,26.86
2022-09-14T15:06:11.943Z,26.85
2022-09-14T15:08:40.407Z,26.83
2022-09-14T15:11:21.609Z,26.81
2022-09-14T15:13:50.914Z,26.80
2022-09-14T15:16:19.731Z,26.81
2022-09-14T15:18:48.295Z,26.80
2022-09-14T15:21:16.931Z,26.79
2022-09-14T15:23:45.413Z,26.79
2022-09-14T15:26:13.973Z,26.78
2022-09-14T15:28:42.409Z,26.78
2022-09-14T15:31:10.874Z,26.77
2022-09-14T15:33:39.662Z,26.78
2022-09-14T15:36:08.257Z,26.77
2022-09-14T15:38:36.763Z,26.77
2022-09-14T15:41:05.890Z,26.77
2022-09-14T15:43:34.933Z,26.77
2022-09-14T15:46:04.595Z,26.78
2022-09-14T15:48:33.196Z,26.77
2022-09-14T15:51:10.727Z,26.78
2022-09-14T15:53:40.161Z,26.78
2022-09-14T15:56:16.257Z,26.80
2022-09-14T15:58:48.023Z,26.80
2022-09-14T16:01:18.542Z,26.81
2022-09-14T16:03:47.462Z,26.81
2022-09-14T16:06:16.397Z,26.82
2022-09-14T16:08:45.020Z,26.82
2022-09-14T16:11:13.498Z,26.80
2022-09-14T16:13:41.945Z,26.80
2022-09-14T16:16:14.051Z,26.80
2022-09-14T16:18:43.448Z,26.81
2022-09-14T16:21:23.655Z,26.81
2022-09-14T16:24:03.546Z,26.80
2022-09-14T16:26:35.358Z,26.79
2022-09-14T16:29:05.005Z,26.78
2022-09-14T16:31:36.479Z,26.78
2022-09-14T16:34:08.326Z,26.76
2022-09-14T16:36:40.624Z,26.76
2022-09-14T16:39:13.593Z,26.74
2022-09-14T16:41:43.321Z,26.72
2022-09-14T16:44:15.169Z,26.72
2022-09-14T16:46:44.478Z,26.72
2022-09-14T16:49:13.522Z,26.71
2022-09-14T16:51:42.010Z,26.71
2022-09-14T16:54:12.438Z,26.70
2022-09-14T16:56:40.900Z,26.70
2022-09-14T16:59:09.379Z,26.69
2022-09-14T17:01:40.890Z,26.69
2022-09-14T17:04:11.876Z,26.69
2022-09-14T17:06:42.534Z,26.67
2022-09-14T17:09:13.947Z,26.67
2022-09-14T17:11:43.692Z,26.66
2022-09-14T17:14:17.046Z,26.66
2022-09-14T17:16:46.037Z,26.64
2022-09-14T17:19:14.704Z,26.64
2022-09-14T17:21:45.852Z,26.64
2022-09-14T17:24:15.528Z,26.63
2022-09-14T17:26:44.602Z,26.61
2022-09-14T17:29:13.457Z,26.63
2022-09-14T17:31:44.252Z,26.63
2022-09-14T17:34:16.990Z,26.63
2022-09-14T17:36:46.612Z,26.63
2022-09-14T17:39:16.500Z,26.63
2022-09-14T17:41:45.424Z,26.64
2022-09-14T17:44:16.979Z,26.64
2022-09-14T17:46:51.999Z,26.64
2022-09-14T17:49:23.977Z,26.63
2022-09-14T17:51:52.901Z,26.64
2022-09-14T17:54:21.790Z,26.63
2022-09-14T17:56:50.295Z,26.61
2022-09-14T17:59:21.778Z,26.60
2022-09-14T18:01:51.310Z,26.59
2022-09-14T18:04:20.509Z,26.58
2022-09-14T18:06:51.005Z,26.57
2022-09-14T18:09:22.574Z,26.55
2022-09-14T18:11:52.128Z,26.55
2022-09-14T18:14:21.054Z,26.52
2022-09-14T18:16:49.566Z,26.52
2022-09-14T18:19:18.243Z,26.49
2022-09-14T18:21:51.654Z,26.47
2022-09-14T18:24:20.902Z,26.46
2022-09-14T18:26:49.777Z,26.45
2022-09-14T18:29:22.261Z,26.42
2022-09-14T18:31:52.127Z,26.41
2022-09-14T18:34:22.661Z,26.39
2022-09-14T18:36:53.033Z,26.37
2022-09-14T18:39:21.473Z,26.36
2022-09-14T18:41:54.864Z,26.34
2022-09-14T18:44:24.392Z,26.32
2022-09-14T18:46:53.469Z,26.30
2022-09-14T18:49:22.112Z,26.28
2022-09-14T18:51:50.749Z,26.26
2022-09-14T18:54:22.204Z,26.24
2022-09-14T18:56:53.076Z,26.21
2022-09-14T18:59:21.722Z,26.17
2022-09-14T19:01:50.448Z,26.15
2022-09-14T19:04:19.062Z,26.14
2022-09-14T19:06:47.574Z,26.13
2022-09-14T19:09:15.990Z,26.11
2022-09-14T19:11:44.476Z,26.09
2022-09-14T19:14:14.411Z,26.08
2022-09-14T19:16:43.722Z,26.07
2022-09-14T19:19:15.093Z,26.07
2022-09-14T19:21:44.187Z,26.05
2022-09-14T19:24:16.133Z,26.05
2022-09-14T19:26:48.058Z,26.03
2022-09-14T19:29:20.304Z,26.02
2022-09-14T19:31:52.514Z,26.00
2022-09-14T19:34:24.238Z,25.98
2022-09-14T19:36:54.727Z,25.95
2022-09-14T19:39:27.149Z,25.93
2022-09-14T19:41:55.643Z,25.90
2022-09-14T19:44:24.291Z,25.90
2022-09-14T19:46:52.866Z,25.89
2022-09-14T19:49:25.064Z,25.89
2022-09-14T19:51:53.747Z,25.87
2022-09-14T19:54:22.393Z,25.87
2022-09-14T19:56:51.180Z,25.86
2022-09-14T19:59:19.644Z,25.84
2022-09-14T20:01:48.402Z,25.84
2022-09-14T20:04:19.151Z,25.84
2022-09-14T20:06:48.711Z,25.85
2022-09-14T20:09:23.522Z,25.83
2022-09-14T20:11:53.708Z,25.84
2022-09-14T20:14:25.415Z,25.82
2022-09-14T20:16:56.556Z,25.83
2022-09-14T20:19:29.161Z,25.83
2022-09-14T20:21:58.246Z,25.84
2022-09-14T20:24:28.859Z,25.83
2022-09-14T20:27:00.556Z,25.83
2022-09-14T20:29:31.620Z,25.82
2022-09-14T20:32:00.587Z,25.81
2022-09-14T20:34:29.694Z,25.82
2022-09-14T20:37:01.256Z,25.82
2022-09-14T20:39:30.598Z,25.81
2022-09-14T20:41:58.980Z,25.81
2022-09-14T20:44:27.506Z,25.79
2022-09-14T20:46:56.048Z,25.79
2022-09-14T20:49:25.076Z,25.80
2022-09-14T20:51:58.341Z,25.79
2022-09-14T20:54:26.887Z,25.76
2022-09-14T20:56:55.293Z,25.76
2022-09-14T20:59:23.999Z,25.75
2022-09-14T21:01:54.091Z,25.74
2022-09-14T21:04:24.707Z,25.72
2022-09-14T21:06:55.583Z,25.71
2022-09-14T21:09:26.576Z,25.71
2022-09-14T21:11:55.556Z,25.70
2022-09-14T21:14:24.419Z,25.70
2022-09-14T21:16:57.553Z,25.69
2022-09-14T21:19:28.825Z,25.69
2022-09-14T21:21:57.585Z,25.69
2022-09-14T21:24:26.212Z,25.68
2022-09-14T21:26:54.777Z,25.65
2022-09-14T21:29:24.755Z,25.64
2022-09-14T21:31:54.070Z,25.65
2022-09-14T21:34:22.953Z,25.65
2022-09-14T21:36:52.952Z,25.64
2022-09-14T21:39:26.724Z,25.63
2022-09-14T21:41:59.339Z,25.62
2022-09-14T21:44:36.258Z,25.63
2022-09-14T21:47:05.995Z,25.63
2022-09-14T21:49:34.569Z,25.64
2022-09-14T21:52:03.356Z,25.64
2022-09-14T21:54:31.969Z,25.64
2022-09-14T21:57:00.511Z,25.63
2022-09-14T21:59:28.943Z,25.62
2022-09-14T22:01:57.492Z,25.62
2022-09-14T22:04:27.910Z,25.63
2022-09-14T22:06:58.210Z,25.63
2022-09-14T22:09:29.904Z,25.63
2022-09-14T22:11:59.179Z,25.63
2022-09-14T22:14:29.934Z,25.62
2022-09-14T22:16:58.614Z,25.62
2022-09-14T22:19:32.535Z,25.61
2022-09-14T22:22:01.160Z,25.60
2022-09-14T22:24:37.129Z,25.60
2022-09-14T22:27:13.016Z,25.60
2022-09-14T22:29:42.164Z,25.60
2022-09-14T22:32:12.925Z,25.60
2022-09-14T22:34:43.907Z,25.60
2022-09-14T22:37:15.095Z,25.60
2022-09-14T22:39:43.630Z,25.57
2022-09-14T22:42:12.136Z,25.57
2022-09-14T22:44:40.543Z,25.57
2022-09-14T22:47:09.050Z,25.55
2022-09-14T22:49:37.575Z,25.55
2022-09-14T22:52:06.162Z,25.55
2022-09-14T22:54:34.638Z,25.55
2022-09-14T22:57:03.117Z,25.55
2022-09-14T22:59:31.690Z,25.55
2022-09-14T23:02:00.163Z,25.56
2022-09-14T23:04:28.631Z,25.57
2022-09-14T23:06:57.127Z,25.60
2022-09-14T23:09:25.623Z,25.61
2022-09-14T23:11:54.269Z,25.63
2022-09-14T23:14:23.265Z,25.64
2022-09-14T23:16:51.751Z,25.67
2022-09-14T23:19:20.458Z,25.68
2022-09-14T23:21:48.944Z,25.71
2022-09-14T23:24:17.429Z,25.72
2022-09-14T23:26:46.005Z,25.74
2022-09-14T23:29:17.329Z,25.76
2022-09-14T23:31:46.493Z,25.79
2022-09-14T23:34:15.480Z,25.83
2022-09-14T23:36:44.068Z,25.86
2022-09-14T23:39:12.657Z,25.87
2022-09-14T23:41:41.769Z,25.89
2022-09-14T23:44:12.974Z,25.92
2022-09-14T23:46:41.757Z,25.93
2022-09-14T23:49:11.592Z,25.96
2022-09-14T23:51:41.061Z,25.99
2022-09-14T23:54:10.957Z,26.00
2022-09-14T23:56:39.732Z,26.03
2022-09-14T23:59:11.500Z,26.04
